Terminal Aerodrome Forecast
Issued by NWS

Current Version | Previous Version | Text Only | Print | Product List | Glossary On
Versions: 1 2 3 4 5 6 7 8 9 10 11 12 13 14
000
FTUS45 KTFX 311100
TAFHLN
TAF
KHLN 311136Z 3112/0112 VRB06KT P6SM BKN180
     FM311400 31006KT P6SM SCT040 BKN060
     FM311700 35010KT 5SM BR SCT015 OVC030
      TEMPO 3117/3121 3SM -SN OVC015
     FM312100 33011KT P6SM VCSH SCT020 OVC050
     FM010400 30007KT P6SM BKN050=

USA.gov is the U.S. government's official web portal to all federal, state and local government web resources and services.